Time;durP1;ratioP1;P1;durP2;ratioP2;P2;SDS_P1;SDS_P2;PMS_P1;PMS_P2;Temp;Humidity;BMP_temperature;BMP_pressure;BME280_temperature;BME280_humidity;BME280_pressure;Samples;Min_cycle;Max_cycle;Signal;HPM_P1;HPM_P2
2023/04/03 00:01:07;;;;;;;42.08;35.13;;;29.00;81.40;;;;;;1838091;77;21134;-80
2023/04/03 00:03:38;;;;;;;40.52;33.35;;;29.00;81.60;;;;;;1839518;77;21114;-81
2023/04/03 00:06:11;;;;;;;43.95;33.78;;;29.10;81.70;;;;;;1832085;77;21197;-82
2023/04/03 00:08:42;;;;;;;42.90;33.48;;;29.10;81.50;;;;;;1830403;75;21189;-82
2023/04/03 00:11:13;;;;;;;32.73;28.50;;;29.20;81.60;;;;;;1831790;77;21135;-81
2023/04/03 00:13:45;;;;;;;32.67;28.55;;;29.20;81.20;;;;;;1835395;77;21257;-81
2023/04/03 00:16:17;;;;;;;35.75;29.60;;;29.20;81.60;;;;;;1822309;77;21789;-80
2023/04/03 00:18:48;;;;;;;32.93;28.20;;;29.20;81.60;;;;;;1809993;77;21211;-80
2023/04/03 00:21:20;;;;;;;50.43;32.05;;;29.20;81.90;;;;;;1838905;77;21147;-80
2023/04/03 00:23:51;;;;;;;36.13;28.47;;;29.20;81.10;;;;;;1849172;76;21128;-80
2023/04/03 00:26:23;;;;;;;34.63;28.67;;;29.20;81.80;;;;;;1844641;76;21136;-81
2023/04/03 00:28:54;;;;;;;32.90;29.30;;;29.20;81.90;;;;;;1822862;76;21207;-80
2023/04/03 00:31:26;;;;;;;38.17;30.23;;;29.20;82.20;;;;;;1851143;77;21147;-81
2023/04/03 00:33:59;;;;;;;37.73;29.87;;;29.10;82.80;;;;;;1846185;77;21163;-80
2023/04/03 00:36:32;;;;;;;34.40;29.87;;;29.10;82.70;;;;;;1800860;78;22042;-75
2023/04/03 00:39:04;;;;;;;38.23;29.67;;;29.10;82.70;;;;;;1848261;77;21140;-76
2023/04/03 00:41:35;;;;;;;38.08;30.40;;;29.10;83.10;;;;;;1836553;77;21580;-74
2023/04/03 00:44:45;;;;;;;35.03;31.05;;;29.10;83.40;;;;;;1849150;77;21606;-75
2023/04/03 00:47:19;;;;;;;40.58;29.55;;;29.10;83.30;;;;;;1898114;75;21442;-74
2023/04/03 00:49:52;;;;;;;37.80;29.82;;;29.10;83.20;;;;;;1845144;76;21128;-74
2023/04/03 00:52:26;;;;;;;39.33;29.95;;;29.10;83.10;;;;;;1889655;74;21162;-74
2023/04/03 00:55:00;;;;;;;86.85;33.02;;;29.10;82.80;;;;;;1887642;75;21147;-74
2023/04/03 00:57:32;;;;;;;37.20;29.27;;;29.20;82.50;;;;;;1846614;76;21164;-74
2023/04/03 01:00:12;;;;;;;39.55;29.12;;;29.30;82.30;;;;;;1855272;76;21213;-74
2023/04/03 01:02:43;;;;;;;37.20;29.07;;;29.40;82.40;;;;;;1902434;75;21535;-75
2023/04/03 01:05:17;;;;;;;36.40;28.30;;;29.40;82.20;;;;;;1894990;75;21147;-74
2023/04/03 01:07:52;;;;;;;34.27;28.67;;;29.40;82.10;;;;;;1845525;76;21128;-74
2023/04/03 01:10:25;;;;;;;33.78;29.40;;;29.40;81.90;;;;;;1833889;77;21353;-74
2023/04/03 01:12:56;;;;;;;33.33;28.67;;;29.50;81.50;;;;;;1853480;77;21449;-74
2023/04/03 01:15:34;;;;;;;37.90;29.02;;;29.50;81.60;;;;;;1839740;77;21482;-73
2023/04/03 01:18:11;;;;;;;34.43;29.15;;;29.50;81.50;;;;;;1901410;75;21943;-75
2023/04/03 01:20:48;;;;;;;39.38;30.05;;;29.60;82.10;;;;;;1812812;77;21248;-77
2023/04/03 01:23:25;;;;;;;50.83;35.83;;;29.60;81.00;;;;;;1826588;77;21531;-74
2023/04/03 01:25:56;;;;;;;;;;;29.70;81.60;;;;;;1858633;77;21135;-75
2023/04/03 01:28:30;;;;;;;42.00;32.70;;;29.80;80.60;;;;;;1844296;77;20176;-75
2023/04/03 01:31:16;;;;;;;34.75;30.60;;;29.80;80.60;;;;;;1849406;76;21158;-74
2023/04/03 01:33:47;;;;;;;44.15;35.23;;;29.90;80.10;;;;;;1848075;77;21179;-76
2023/04/03 01:36:23;;;;;;;38.33;32.42;;;30.00;80.10;;;;;;1835623;77;21214;-75
2023/04/03 01:38:58;;;;;;;38.00;31.85;;;30.00;80.30;;;;;;1892832;74;21832;-76
2023/04/03 01:41:32;;;;;;;38.20;31.20;;;30.10;79.10;;;;;;1889974;75;21374;-75
2023/04/03 01:44:03;;;;;;;36.25;29.67;;;30.10;78.60;;;;;;1902096;73;21154;-74
2023/04/03 01:46:34;;;;;;;35.95;31.73;;;30.20;78.20;;;;;;1921582;73;21191;-75
2023/04/03 01:49:09;;;;;;;35.98;31.97;;;30.30;78.30;;;;;;1950180;73;21163;-72
2023/04/03 01:51:40;;;;;;;38.63;32.08;;;30.40;78.20;;;;;;1896310;74;21253;-75
2023/04/03 01:54:11;;;;;;;52.50;34.18;;;30.40;78.40;;;;;;1959372;71;21232;-75
2023/04/03 01:56:43;;;;;;;41.60;31.40;;;30.40;78.30;;;;;;1900007;74;21139;-74
2023/04/03 01:59:16;;;;;;;40.38;33.20;;;30.50;78.10;;;;;;1953075;73;21111;-74
2023/04/03 02:01:46;;;;;;;38.38;31.37;;;30.60;77.90;;;;;;1931791;73;21488;-74
2023/04/03 02:04:18;;;;;;;41.37;33.30;;;30.70;77.40;;;;;;1864423;75;21131;-74
2023/04/03 02:06:49;;;;;;;46.77;34.90;;;30.80;76.50;;;;;;1943289;73;21141;-72
2023/04/03 02:09:21;;;;;;;43.38;33.83;;;30.80;76.30;;;;;;1889672;74;21490;-75
2023/04/03 02:14:43;;;;;;;38.85;33.67;;;31.00;74.60;;;;;;1908632;75;21497;-75
2023/04/03 02:17:14;;;;;;;35.75;32.05;;;31.00;74.80;;;;;;1881912;75;21776;-74
2023/04/03 02:19:46;;;;;;;43.65;32.42;;;31.00;74.70;;;;;;1917375;75;21168;-75
2023/04/03 02:22:22;;;;;;;40.35;34.23;;;31.10;74.90;;;;;;1875963;75;21169;-74
2023/04/03 02:24:54;;;;;;;41.45;32.50;;;31.20;74.20;;;;;;1883614;75;21183;-74
2023/04/03 02:27:25;;;;;;;35.52;31.35;;;31.30;74.20;;;;;;1851675;75;21173;-76
2023/04/03 02:29:58;;;;;;;38.33;32.53;;;31.40;73.50;;;;;;1884501;75;21192;-74
2023/04/03 02:32:30;;;;;;;38.02;33.13;;;31.50;73.50;;;;;;1841216;78;21144;-75
2023/04/03 02:35:01;;;;;;;38.40;32.58;;;31.50;73.40;;;;;;1864159;76;21794;-75
2023/04/03 02:37:36;;;;;;;42.40;34.20;;;31.60;72.20;;;;;;1864189;76;21408;-75
2023/04/03 02:40:11;;;;;;;40.70;32.42;;;31.70;72.30;;;;;;1880545;76;21375;-75
2023/04/03 02:42:43;;;;;;;46.33;34.10;;;31.80;71.80;;;;;;1847896;76;21161;-75
2023/04/03 02:45:15;;;;;;;38.95;32.25;;;31.90;71.10;;;;;;1883364;76;21447;-74
2023/04/03 02:47:46;;;;;;;35.68;31.05;;;32.00;70.30;;;;;;1862721;76;21508;-74
2023/04/03 02:50:17;;;;;;;40.75;32.13;;;32.10;70.80;;;;;;1875847;76;21117;-74
2023/04/03 02:52:49;;;;;;;41.70;34.60;;;32.20;70.90;;;;;;1860458;76;21706;-75
2023/04/03 02:55:20;;;;;;;39.27;33.35;;;32.30;69.60;;;;;;1870407;76;21133;-74
2023/04/03 02:57:52;;;;;;;39.40;32.48;;;32.40;68.80;;;;;;1852573;76;21503;-74
2023/04/03 03:00:23;;;;;;;37.20;31.25;;;32.50;68.40;;;;;;1873442;76;21215;-73
2023/04/03 03:02:55;;;;;;;36.83;30.77;;;32.50;67.80;;;;;;1870334;76;21870;-75
2023/04/03 03:05:26;;;;;;;36.05;30.20;;;32.60;67.30;;;;;;1883162;76;21238;-74
2023/04/03 03:07:59;;;;;;;41.45;31.87;;;32.70;67.40;;;;;;1866843;76;21184;-75
2023/04/03 03:10:34;;;;;;;35.33;30.68;;;32.90;68.10;;;;;;1857037;76;21844;-75
2023/04/03 03:13:06;;;;;;;39.27;31.10;;;33.00;67.50;;;;;;1863113;75;21265;-75
2023/04/03 03:15:37;;;;;;;40.00;35.55;;;33.00;67.30;;;;;;1911027;75;21180;-74
2023/04/03 03:18:12;;;;;;;36.75;30.43;;;33.10;66.30;;;;;;1892275;75;21132;-74
2023/04/03 03:20:43;;;;;;;33.67;30.00;;;33.20;66.60;;;;;;1903811;73;21179;-75
2023/04/03 03:23:14;;;;;;;33.33;29.55;;;33.30;66.40;;;;;;1911099;73;21132;-75
2023/04/03 03:25:46;;;;;;;40.70;28.42;;;33.50;65.90;;;;;;1940756;73;21200;-74
2023/04/03 03:28:18;;;;;;;31.70;27.75;;;33.60;66.10;;;;;;1932200;73;21374;-75
2023/04/03 03:30:49;;;;;;;30.95;27.73;;;33.70;65.50;;;;;;1924640;73;21160;-74
2023/04/03 03:33:20;;;;;;;35.95;27.45;;;33.80;65.60;;;;;;1906882;73;21899;-75
2023/04/03 03:35:53;;;;;;;37.08;29.05;;;33.80;64.90;;;;;;1935664;73;21085;-75
2023/04/03 03:38:25;;;;;;;36.28;28.32;;;34.00;64.10;;;;;;1936844;73;21442;-76
2023/04/03 03:40:56;;;;;;;33.98;28.02;;;34.10;64.60;;;;;;1925764;73;21648;-74
2023/04/03 03:43:28;;;;;;;31.40;27.85;;;34.20;64.20;;;;;;1933983;73;21848;-75
2023/04/03 03:45:59;;;;;;;34.27;27.17;;;34.30;61.80;;;;;;1934364;73;21128;-75
2023/04/03 03:48:31;;;;;;;34.20;27.80;;;34.30;62.80;;;;;;1881074;75;21578;-75
2023/04/03 03:51:07;;;;;;;32.10;28.90;;;34.40;62.00;;;;;;1904370;73;21171;-74
2023/04/03 03:53:35;;;;;;;37.53;31.25;;;34.40;61.00;;;;;;1903493;75;21418;-76
2023/04/03 03:56:07;;;;;;;35.75;31.35;;;34.50;60.60;;;;;;1890634;75;21156;-76
2023/04/03 03:58:38;;;;;;;34.67;30.40;;;34.40;60.90;;;;;;1891284;74;21120;-72
2023/04/03 04:01:10;;;;;;;35.17;30.95;;;34.40;61.20;;;;;;1895038;75;21112;-75
2023/04/03 04:03:41;;;;;;;35.38;31.17;;;34.50;60.70;;;;;;1899838;73;21124;-74
2023/04/03 04:06:13;;;;;;;34.90;30.37;;;34.50;60.30;;;;;;1910338;73;21648;-75
2023/04/03 04:08:44;;;;;;;43.87;31.95;;;34.50;60.10;;;;;;1918179;73;21186;-76
2023/04/03 04:11:15;;;;;;;33.75;30.25;;;34.50;60.80;;;;;;1804358;77;21155;-75
2023/04/03 04:13:46;;;;;;;34.90;29.12;;;34.50;60.20;;;;;;1882765;75;21121;-74
2023/04/03 04:16:17;;;;;;;46.77;28.10;;;34.70;60.50;;;;;;1888345;75;21184;-76
2023/04/03 04:18:48;;;;;;;37.23;29.87;;;34.70;60.30;;;;;;1890603;76;21134;-75
2023/04/03 04:21:19;;;;;;;31.80;28.38;;;34.80;60.10;;;;;;1880733;74;21141;-75
2023/04/03 04:23:50;;;;;;;38.33;32.88;;;34.90;60.00;;;;;;1867117;76;21138;-75
2023/04/03 04:26:22;;;;;;;33.48;30.00;;;35.00;59.80;;;;;;1901536;75;21234;-75
2023/04/03 04:28:53;;;;;;;37.60;32.65;;;35.10;59.30;;;;;;1890377;75;21129;-75
2023/04/03 04:31:24;;;;;;;36.55;29.77;;;35.10;59.40;;;;;;1916890;74;21181;-75
2023/04/03 04:34:14;;;;;;;35.68;29.07;;;35.10;59.60;;;;;;1900617;74;21133;-77
2023/04/03 04:36:45;;;;;;;30.32;27.10;;;35.00;60.00;;;;;;1876386;75;22129;-74
2023/04/03 04:39:16;;;;;;;30.12;26.93;;;35.10;58.90;;;;;;1894758;74;21454;-75
2023/04/03 04:41:48;;;;;;;32.05;28.30;;;35.10;58.60;;;;;;1922248;74;21133;-74
2023/04/03 04:44:19;;;;;;;31.80;28.65;;;35.20;57.60;;;;;;1897661;75;21153;-76
2023/04/03 04:46:51;;;;;;;33.48;28.87;;;35.20;55.90;;;;;;1867643;76;21137;-75
2023/04/03 04:49:22;;;;;;;30.90;27.75;;;35.30;56.90;;;;;;1874149;75;21121;-76
2023/04/03 04:51:55;;;;;;;34.48;29.30;;;35.30;56.30;;;;;;1884974;76;21599;-76
2023/04/03 04:54:26;;;;;;;32.17;28.67;;;35.30;56.40;;;;;;1881641;74;21616;-75
2023/04/03 04:56:57;;;;;;;32.48;29.18;;;35.40;55.00;;;;;;1926710;74;21119;-75
2023/04/03 04:59:28;;;;;;;31.93;28.60;;;35.50;55.60;;;;;;1906278;74;21172;-74
2023/04/03 05:01:59;;;;;;;32.50;29.00;;;35.60;55.40;;;;;;1890071;75;21356;-75
2023/04/03 05:04:31;;;;;;;31.27;27.90;;;35.60;55.80;;;;;;1887595;75;21187;-74
2023/04/03 05:07:02;;;;;;;30.37;27.10;;;35.70;54.90;;;;;;1871633;76;21822;-75
2023/04/03 05:09:33;;;;;;;29.02;26.00;;;35.70;55.20;;;;;;1900270;74;21789;-74
2023/04/03 05:12:04;;;;;;;30.97;27.77;;;35.70;55.40;;;;;;1863845;76;21211;-74
2023/04/03 05:14:35;;;;;;;30.12;26.82;;;35.80;55.40;;;;;;1903553;75;21183;-74
2023/04/03 05:17:07;;;;;;;29.70;26.80;;;35.80;54.60;;;;;;1895456;75;21785;-76
2023/04/03 05:19:38;;;;;;;32.33;28.85;;;35.80;54.70;;;;;;1879664;76;21140;-75
2023/04/03 05:22:09;;;;;;;37.80;30.55;;;35.90;54.90;;;;;;1881562;75;21136;-75
2023/04/03 05:24:40;;;;;;;29.70;26.75;;;36.00;54.50;;;;;;1929836;73;21607;-74
2023/04/03 05:27:11;;;;;;;27.80;24.82;;;36.10;54.60;;;;;;1892428;73;21112;-74
2023/04/03 05:29:43;;;;;;;30.55;27.45;;;36.10;54.10;;;;;;1898424;73;21596;-74
2023/04/03 05:32:14;;;;;;;33.80;28.80;;;36.20;54.50;;;;;;1890310;73;21121;-76
2023/04/03 05:34:45;;;;;;;30.80;27.07;;;36.20;54.20;;;;;;1910852;75;21675;-75
2023/04/03 05:37:16;;;;;;;31.97;28.62;;;36.30;53.20;;;;;;1907691;75;21117;-75
2023/04/03 05:39:47;;;;;;;32.00;26.48;;;36.40;53.30;;;;;;1911880;75;21875;-75
2023/04/03 05:42:19;;;;;;;30.72;27.52;;;36.40;52.80;;;;;;1923741;73;21089;-76
2023/04/03 05:44:50;;;;;;;31.45;28.05;;;36.50;52.70;;;;;;1925790;73;21117;-75
2023/04/03 05:47:22;;;;;;;32.55;28.80;;;36.60;53.40;;;;;;1911671;74;21483;-75
2023/04/03 05:49:53;;;;;;;39.15;26.37;;;36.60;53.00;;;;;;1911529;75;21886;-75
2023/04/03 05:52:29;;;;;;;29.87;26.85;;;36.60;52.00;;;;;;1911849;75;21411;-75
2023/04/03 05:55:00;;;;;;;30.50;27.22;;;36.70;52.10;;;;;;1929284;73;21589;-75
2023/04/03 05:57:32;;;;;;;31.90;26.85;;;36.60;52.20;;;;;;1946150;73;21089;-75
2023/04/03 06:00:05;;;;;;;30.82;27.60;;;36.70;52.50;;;;;;1914756;73;21140;-75
2023/04/03 06:02:36;;;;;;;29.00;26.00;;;36.60;52.20;;;;;;1913741;73;21164;-75
2023/04/03 06:05:11;;;;;;;29.77;26.73;;;36.60;52.70;;;;;;1904107;75;21140;-76
2023/04/03 06:07:42;;;;;;;29.48;26.37;;;36.60;52.90;;;;;;1935275;73;21128;-75
2023/04/03 06:10:13;;;;;;;31.00;27.80;;;36.60;52.30;;;;;;1898194;75;21124;-76
2023/04/03 06:12:45;;;;;;;30.37;27.15;;;36.60;52.70;;;;;;1888452;75;21755;-76
2023/04/03 06:15:17;;;;;;;29.77;26.30;;;36.70;51.90;;;;;;1841459;76;21157;-73
2023/04/03 06:17:48;;;;;;;30.17;26.95;;;36.70;52.20;;;;;;1824868;77;21283;-74
2023/04/03 06:20:20;;;;;;;31.33;27.32;;;36.80;52.60;;;;;;1825922;77;21149;-74
2023/04/03 06:22:51;;;;;;;30.88;26.95;;;36.80;51.50;;;;;;1798387;77;21606;-73
2023/04/03 06:25:22;;;;;;;28.40;25.52;;;36.80;51.50;;;;;;1821648;77;21192;-73
2023/04/03 06:27:55;;;;;;;28.87;25.95;;;36.80;52.30;;;;;;1821306;77;21307;-73
2023/04/03 06:30:27;;;;;;;28.80;25.70;;;36.90;52.10;;;;;;1837176;77;21252;-74
2023/04/03 06:32:59;;;;;;;29.45;26.55;;;36.90;51.50;;;;;;1809805;79;21693;-73
2023/04/03 06:35:30;;;;;;;31.93;27.27;;;36.90;52.30;;;;;;1820692;78;21187;-74
2023/04/03 06:38:03;;;;;;;30.80;27.50;;;37.00;50.20;;;;;;1821826;79;21596;-75
2023/04/03 06:40:34;;;;;;;28.35;25.40;;;36.90;49.10;;;;;;1807300;78;21131;-73
2023/04/03 06:43:07;;;;;;;30.75;25.55;;;37.00;50.30;;;;;;1814592;79;21185;-73
2023/04/03 06:45:38;;;;;;;26.25;23.75;;;36.90;48.10;;;;;;1831218;77;21209;-75
2023/04/03 06:48:09;;;;;;;26.02;23.22;;;37.00;47.50;;;;;;1815133;79;21158;-74
2023/04/03 06:50:41;;;;;;;25.57;23.00;;;37.00;46.80;;;;;;1822009;79;21230;-74
2023/04/03 06:53:14;;;;;;;25.55;22.77;;;37.00;48.10;;;;;;1816514;79;21416;-73
2023/04/03 06:55:47;;;;;;;27.32;24.20;;;37.10;47.90;;;;;;1821738;77;21266;-72
2023/04/03 06:58:27;;;;;;;25.57;23.05;;;37.10;48.90;;;;;;1830158;77;21265;-72
2023/04/03 07:00:54;;;;;;;26.73;23.92;;;37.10;48.80;;;;;;1813360;78;21235;-74
2023/04/03 07:03:25;;;;;;;25.40;22.70;;;37.10;49.70;;;;;;1853340;76;21169;-74
2023/04/03 07:05:57;;;;;;;27.00;23.90;;;37.00;49.70;;;;;;1922468;74;21137;-74
2023/04/03 07:08:28;;;;;;;25.85;23.20;;;37.00;49.40;;;;;;1926741;74;21201;-74
2023/04/03 07:11:00;;;;;;;27.02;23.55;;;37.00;49.70;;;;;;1912971;74;21181;-74
2023/04/03 07:13:31;;;;;;;24.45;21.97;;;36.90;50.00;;;;;;1928534;74;21148;-75
2023/04/03 07:16:03;;;;;;;49.27;25.95;;;36.90;48.50;;;;;;1901325;74;21171;-74
2023/04/03 07:18:34;;;;;;;30.75;22.27;;;36.90;49.10;;;;;;1886898;75;21597;-74
2023/04/03 07:21:06;;;;;;;26.97;22.80;;;36.90;47.60;;;;;;1885322;75;21838;-72
2023/04/03 07:23:37;;;;;;;28.65;24.30;;;36.90;47.00;;;;;;1881871;75;21175;-73
2023/04/03 07:26:09;;;;;;;38.15;24.77;;;36.90;47.00;;;;;;1881507;75;21150;-73
2023/04/03 07:28:41;;;;;;;28.10;24.32;;;36.90;48.80;;;;;;1877001;75;21173;-74
2023/04/03 07:31:16;;;;;;;26.30;23.60;;;36.90;48.70;;;;;;1884767;75;21276;-74
2023/04/03 07:33:48;;;;;;;29.12;25.70;;;36.90;49.00;;;;;;1879513;75;21240;-76
2023/04/03 07:36:21;;;;;;;27.27;24.10;;;37.00;48.80;;;;;;1868785;75;21486;-74
2023/04/03 07:38:52;;;;;;;27.98;23.27;;;37.10;48.40;;;;;;1877864;75;21160;-73
2023/04/03 07:41:24;;;;;;;26.87;24.18;;;37.10;48.70;;;;;;1886712;75;21222;-73
2023/04/03 07:43:56;;;;;;;27.30;24.57;;;37.10;48.10;;;;;;1884476;75;21191;-75
2023/04/03 07:46:27;;;;;;;27.98;25.17;;;37.10;47.00;;;;;;1880058;75;21848;-74
2023/04/03 07:48:59;;;;;;;26.65;23.85;;;37.00;46.80;;;;;;1881672;75;21134;-75
2023/04/03 07:51:30;;;;;;;28.30;24.30;;;36.90;46.80;;;;;;1882112;75;21130;-74
2023/04/03 07:54:02;;;;;;;27.42;23.73;;;36.90;47.30;;;;;;1878435;75;21097;-74
2023/04/03 07:56:33;;;;;;;27.37;22.25;;;36.90;47.70;;;;;;1886538;75;21171;-73
2023/04/03 07:59:11;;;;;;;28.57;22.98;;;36.80;47.90;;;;;;1882755;75;21190;-74
2023/04/03 08:01:45;;;;;;;23.80;21.25;;;36.70;48.70;;;;;;1882930;75;21889;-73
2023/04/03 08:04:18;;;;;;;25.50;22.55;;;36.60;48.40;;;;;;1871627;75;21114;-75
2023/04/03 08:06:49;;;;;;;26.93;23.45;;;36.50;48.80;;;;;;1886015;75;21105;-73
2023/04/03 08:09:21;;;;;;;25.30;22.73;;;36.40;49.20;;;;;;1877604;75;21700;-74
2023/04/03 08:11:53;;;;;;;24.30;21.95;;;36.30;49.20;;;;;;1881577;75;21248;-76
2023/04/03 08:14:35;;;;;;;27.67;24.77;;;36.30;48.90;;;;;;1884103;75;22059;-75
2023/04/03 08:17:12;;;;;;;26.60;23.50;;;36.20;49.00;;;;;;1897247;74;22100;-74
2023/04/03 08:19:43;;;;;;;30.12;25.43;;;36.20;48.30;;;;;;1903193;74;21171;-74
2023/04/03 08:22:15;;;;;;;26.05;22.70;;;36.10;48.70;;;;;;1916301;74;21185;-74
2023/04/03 08:24:46;;;;;;;42.90;24.72;;;36.00;49.70;;;;;;1910839;74;21208;-76
2023/04/03 08:27:19;;;;;;;51.98;26.75;;;35.90;51.20;;;;;;1911818;74;21074;-76
2023/04/03 08:29:51;;;;;;;37.33;25.23;;;35.50;53.20;;;;;;1913478;74;21434;-82
2023/04/03 08:32:22;;;;;;;33.67;24.50;;;34.80;55.10;;;;;;1917128;74;21223;-81
2023/04/03 08:34:54;;;;;;;28.20;24.00;;;34.20;57.50;;;;;;1911701;74;21129;-83
2023/04/03 08:37:26;;;;;;;33.90;24.15;;;33.80;57.90;;;;;;1905140;74;21113;-83
2023/04/03 08:39:57;;;;;;;30.70;22.25;;;33.60;59.30;;;;;;1920059;74;21063;-83
2023/04/03 08:42:42;;;;;;;26.20;19.95;;;33.30;58.80;;;;;;1908174;74;21852;-83
2023/04/03 08:45:21;;;;;;;30.50;19.62;;;32.90;59.30;;;;;;1921229;74;21065;-83
2023/04/03 08:48:03;;;;;;;25.97;21.17;;;32.40;61.60;;;;;;1899338;74;21957;-82
2023/04/03 08:50:41;;;;;;;25.23;21.07;;;31.90;64.20;;;;;;1901773;74;21205;-84
2023/04/03 08:53:22;;;;;;;25.92;20.95;;;31.50;66.90;;;;;;1920852;74;21102;-82
2023/04/03 08:55:55;;;;;;;27.05;21.23;;;31.10;67.80;;;;;;1920768;74;21124;-82
2023/04/03 08:58:35;;;;;;;27.00;20.85;;;30.90;68.70;;;;;;1910456;74;21114;-83
2023/04/03 09:01:09;;;;;;;22.05;19.60;;;30.60;69.00;;;;;;1914944;74;21062;-81
2023/04/03 09:03:41;;;;;;;28.65;22.90;;;30.40;70.60;;;;;;1913197;74;21149;-83
2023/04/03 09:06:15;;;;;;;26.65;23.57;;;30.30;73.70;;;;;;1919900;74;21059;-83
2023/04/03 09:08:49;;;;;;;26.42;23.18;;;30.20;73.50;;;;;;1921930;74;21529;-84
2023/04/03 09:11:29;;;;;;;28.70;22.50;;;30.00;74.50;;;;;;1909471;74;21117;-83
2023/04/03 09:14:02;;;;;;;32.80;25.20;;;29.90;76.10;;;;;;1908734;74;21644;-83
2023/04/03 09:16:36;;;;;;;28.42;25.40;;;29.90;76.10;;;;;;1916964;74;21090;-85
2023/04/03 09:19:29;;;;;;;28.90;24.87;;;29.80;76.40;;;;;;1923151;74;21172;-83
2023/04/03 09:22:22;;;;;;;30.92;25.85;;;29.80;77.40;;;;;;1927118;74;21690;-82
2023/04/03 09:25:08;;;;;;;28.50;24.18;;;29.80;77.50;;;;;;1916273;74;21721;-83
2023/04/03 09:27:40;;;;;;;28.77;22.22;;;29.90;74.50;;;;;;1926512;74;21136;-82
2023/04/03 09:30:19;;;;;;;23.25;20.50;;;30.00;72.90;;;;;;1917156;74;21129;-81
2023/04/03 09:32:53;;;;;;;22.82;20.35;;;30.10;71.30;;;;;;1929577;74;21042;-82
2023/04/03 09:35:31;;;;;;;24.52;21.82;;;30.10;71.90;;;;;;1924510;74;21117;-83
2023/04/03 09:38:11;;;;;;;32.53;25.92;;;30.10;71.30;;;;;;1924325;74;21166;-83
2023/04/03 09:40:47;;;;;;;36.08;30.95;;;30.30;72.50;;;;;;1926089;74;21215;-81
2023/04/03 09:43:26;;;;;;;43.45;33.42;;;30.40;76.00;;;;;;1921194;74;21073;-82
2023/04/03 09:46:00;;;;;;;42.90;35.65;;;30.50;77.20;;;;;;1934424;74;21074;-81
2023/04/03 09:48:33;;;;;;;36.98;31.37;;;30.50;78.50;;;;;;1913722;74;21581;-79
2023/04/03 09:51:05;;;;;;;45.10;33.25;;;30.50;77.20;;;;;;1927899;74;21597;-82
2023/04/03 09:53:44;;;;;;;41.02;35.15;;;30.60;80.00;;;;;;1929371;74;21101;-82
2023/04/03 09:56:29;;;;;;;37.88;33.78;;;30.80;83.90;;;;;;1930493;74;21159;-81
2023/04/03 09:59:09;;;;;;;41.00;35.25;;;30.80;82.70;;;;;;1923735;74;21141;-82
2023/04/03 10:01:42;;;;;;;36.83;32.48;;;30.90;82.60;;;;;;1925020;74;21202;-82
2023/04/03 10:04:16;;;;;;;39.92;35.13;;;31.00;80.90;;;;;;1923595;74;21203;-82
2023/04/03 10:06:50;;;;;;;46.50;38.00;;;31.10;82.00;;;;;;1928235;74;21121;-82
2023/04/03 10:09:33;;;;;;;42.65;38.13;;;31.30;82.90;;;;;;1932823;74;21193;-82
2023/04/03 10:12:11;;;;;;;44.13;37.55;;;31.40;83.90;;;;;;1920389;74;21062;-83
2023/04/03 10:14:56;;;;;;;40.58;36.33;;;31.50;83.90;;;;;;1922838;74;21181;-83
2023/04/03 10:17:31;;;;;;;47.33;41.98;;;31.60;83.80;;;;;;1918172;74;21203;-82
2023/04/03 10:20:27;;;;;;;43.15;38.13;;;31.80;86.50;;;;;;1917751;74;21163;-83
2023/04/03 10:23:20;;;;;;;49.30;42.13;;;31.90;86.90;;;;;;1919379;74;21182;-82
2023/04/03 10:26:02;;;;;;;43.02;37.70;;;32.10;87.90;;;;;;1921010;74;21121;-83
2023/04/03 10:28:57;;;;;;;40.28;35.33;;;32.20;86.40;;;;;;1906991;74;21129;-84
2023/04/03 10:31:33;;;;;;;37.40;33.50;;;32.30;85.70;;;;;;1841487;74;21178;-83
2023/04/03 10:34:26;;;;;;;34.05;30.65;;;32.30;81.80;;;;;;1913879;74;21118;-83
2023/04/03 10:37:02;;;;;;;34.67;30.65;;;32.30;80.10;;;;;;1905519;74;21183;-83
2023/04/03 10:39:37;;;;;;;;;;;32.30;79.70;;;;;;1919264;74;21149;-83
2023/04/03 10:42:13;;;;;;;33.80;29.92;;;32.20;79.00;;;;;;1908759;74;20478;-83
2023/04/03 10:44:56;;;;;;;33.18;29.67;;;32.20;78.90;;;;;;1899902;74;21117;-83
2023/04/03 10:47:57;;;;;;;34.53;29.07;;;32.10;80.10;;;;;;1908214;74;21142;-83
2023/04/03 10:50:31;;;;;;;32.33;28.90;;;32.00;79.90;;;;;;1916337;74;21179;-83
2023/04/03 10:53:17;;;;;;;33.90;28.75;;;31.90;79.80;;;;;;1911059;74;21109;-84
2023/04/03 10:55:53;;;;;;;34.80;28.50;;;31.80;79.60;;;;;;1917058;74;21094;-83
2023/04/03 10:58:24;;;;;;;;;;;31.70;79.20;;;;;;1924299;74;21159;-83
2023/04/03 11:00:58;;;;;;;31.57;28.17;;;31.70;79.40;;;;;;1915780;74;20164;-84
2023/04/03 11:03:37;;;;;;;33.85;28.05;;;31.60;79.90;;;;;;1916525;74;21110;-85
2023/04/03 11:06:11;;;;;;;31.90;28.00;;;31.60;79.90;;;;;;1917968;74;21062;-83
2023/04/03 11:08:47;;;;;;;33.18;29.00;;;31.60;78.90;;;;;;1910954;74;21109;-84
2023/04/03 11:11:27;;;;;;;31.15;27.80;;;31.60;78.20;;;;;;1910755;74;21102;-83
2023/04/03 11:14:00;;;;;;;31.35;27.85;;;31.50;77.90;;;;;;1901101;74;21243;-82
2023/04/03 11:16:34;;;;;;;35.58;29.00;;;31.50;78.20;;;;;;1917082;74;21114;-84
2023/04/03 11:19:24;;;;;;;36.53;30.30;;;31.50;77.50;;;;;;1904887;74;21125;-83
2023/04/03 11:22:09;;;;;;;34.70;31.00;;;31.50;78.10;;;;;;1904140;74;21323;-83
2023/04/03 11:24:43;;;;;;;32.93;28.90;;;31.40;78.20;;;;;;1899451;75;21586;-82
2023/04/03 11:27:22;;;;;;;35.10;30.27;;;31.40;78.30;;;;;;1893301;75;22062;-82
2023/04/03 11:29:54;;;;;;;32.08;28.65;;;31.40;77.10;;;;;;1896616;75;21176;-83
2023/04/03 11:32:49;;;;;;;33.05;29.55;;;31.40;76.40;;;;;;1888627;75;21178;-82
2023/04/03 11:35:21;;;;;;;33.02;26.97;;;31.30;77.30;;;;;;1883983;75;21415;-82
2023/04/03 11:37:54;;;;;;;37.50;28.02;;;31.40;76.70;;;;;;1896531;75;21031;-82
2023/04/03 11:40:27;;;;;;;31.82;27.60;;;31.30;76.70;;;;;;1893607;75;21113;-82
2023/04/03 11:43:01;;;;;;;30.48;26.57;;;31.40;76.20;;;;;;1891503;75;21180;-81
2023/04/03 11:45:55;;;;;;;34.15;26.85;;;31.40;75.90;;;;;;1880217;75;21113;-82
2023/04/03 11:48:33;;;;;;;29.05;25.95;;;31.30;75.80;;;;;;1851994;76;21573;-82
2023/04/03 11:51:20;;;;;;;34.00;25.50;;;31.40;74.70;;;;;;1825069;77;21122;-83
2023/04/03 11:53:50;;;;;;;34.15;26.85;;;31.30;75.40;;;;;;1849508;77;21216;-83
2023/04/03 11:56:34;;;;;;;32.70;28.75;;;31.30;75.00;;;;;;1838084;77;21181;-83
2023/04/03 11:59:18;;;;;;;33.83;28.70;;;31.30;75.20;;;;;;1824954;78;21235;-82
2023/04/03 12:01:59;;;;;;;31.42;26.87;;;31.40;75.60;;;;;;1828567;78;21256;-82
2023/04/03 12:04:34;;;;;;;31.45;28.15;;;31.40;75.60;;;;;;1840031;77;21412;-82
2023/04/03 12:07:14;;;;;;;30.97;26.75;;;31.30;75.50;;;;;;1856813;77;21838;-82
2023/04/03 12:09:48;;;;;;;32.85;27.32;;;31.40;74.80;;;;;;1847036;77;21578;-82
2023/04/03 12:12:40;;;;;;;35.55;30.25;;;31.40;75.00;;;;;;1797321;80;21180;-83
2023/04/03 12:15:19;;;;;;;43.02;34.63;;;31.40;75.00;;;;;;1796578;78;21916;-82
2023/04/03 12:17:51;;;;;;;45.15;36.53;;;31.40;74.50;;;;;;1787994;77;21189;-82
2023/04/03 12:20:54;;;;;;;49.83;38.15;;;31.40;74.30;;;;;;1800386;79;21191;-82
2023/04/03 12:23:33;;;;;;;50.85;39.08;;;31.40;74.80;;;;;;1915443;74;21057;-81
2023/04/03 12:26:21;;;;;;;40.08;34.53;;;31.40;74.60;;;;;;1928551;74;21517;-82
2023/04/03 12:28:56;;;;;;;43.05;34.85;;;31.40;74.00;;;;;;1912165;74;21124;-83
2023/04/03 12:31:29;;;;;;;41.30;32.98;;;31.30;74.20;;;;;;1902796;74;21173;-83
2023/04/03 12:34:17;;;;;;;40.75;34.30;;;31.40;74.10;;;;;;1894313;74;21206;-82
2023/04/03 12:37:00;;;;;;;43.83;36.65;;;31.30;74.40;;;;;;1893298;75;21147;-81
2023/04/03 12:39:39;;;;;;;43.70;35.63;;;31.40;74.40;;;;;;1892832;76;21190;-82
2023/04/03 12:42:27;;;;;;;47.60;37.63;;;31.40;74.40;;;;;;1840161;74;21207;-82
2023/04/03 12:45:01;;;;;;;50.58;40.55;;;31.40;74.50;;;;;;1896818;75;21125;-82
2023/04/03 12:47:35;;;;;;;53.52;41.60;;;31.30;75.50;;;;;;1872225;75;21245;-83
2023/04/03 12:50:10;;;;;;;52.27;43.28;;;31.30;74.40;;;;;;1872229;75;21152;-82
2023/04/03 12:52:43;;;;;;;49.73;41.58;;;31.30;74.30;;;;;;1869728;75;21188;-84
2023/04/03 12:55:19;;;;;;;57.62;44.33;;;31.30;74.40;;;;;;1872743;75;21963;-83
2023/04/03 12:57:51;;;;;;;51.05;42.17;;;31.30;74.60;;;;;;1872907;74;21141;-82
2023/04/03 13:00:29;;;;;;;51.10;41.65;;;31.30;74.10;;;;;;1894356;75;21168;-83
2023/04/03 13:03:07;;;;;;;51.77;41.77;;;31.30;74.50;;;;;;1873713;76;21568;-82
2023/04/03 13:05:39;;;;;;;54.40;43.93;;;31.30;74.00;;;;;;1900351;74;21129;-83
2023/04/03 13:08:14;;;;;;;50.12;41.92;;;31.30;74.30;;;;;;1891445;75;21157;-83